Terminal Aerodrome Forecast
Issued by NWS

Home | Current Version | Previous Version | Text Only | Print | Product List | Glossary On
Versions: 1 2 3 4 5 6 7 8 9 10 11 12 13 14 15 16 17 18 19 20 21 22 23 24
000
FTUS42 KTAE 032300
TAFABY
TAF
KABY 032331Z 0400/0424 22005KT P6SM SCT030
     FM040600 18005KT 3SM BR SCT003
     FM041000 17004KT 1/2SM FG OVC003
     FM041300 19003KT 3SM BR OVC015
     FM041600 21010G15KT P6SM SCT025=

USA.gov is the U.S. government's official web portal to all federal, state and local government web resources and services.